sensor_id;sensor_type;location;lat;lon;timestamp;pressure;altitude;pressure_sealevel;temperature
63113;BMP280;49206;48.020;21.378;2022-09-09T00:27:38;100324.91;;;19.24
63113;BMP280;49206;48.020;21.378;2022-09-09T00:37:44;100326.53;;;19.15
63113;BMP280;49206;48.020;21.378;2022-09-09T00:47:52;100336.16;;;19.05
63113;BMP280;49206;48.020;21.378;2022-09-09T00:57:58;100332.38;;;18.99
63113;BMP280;49206;48.020;21.378;2022-09-09T01:08:02;100327.47;;;18.88
63113;BMP280;49206;48.020;21.378;2022-09-09T01:18:13;100332.94;;;18.74
63113;BMP280;49206;48.020;21.378;2022-09-09T01:28:22;100306.13;;;18.81
63113;BMP280;49206;48.020;21.378;2022-09-09T01:38:33;100331.41;;;18.73
63113;BMP280;49206;48.020;21.378;2022-09-09T01:54:35;100308.53;;;18.61
63113;BMP280;49206;48.020;21.378;2022-09-09T02:20:53;100278.09;;;18.38
63113;BMP280;49206;48.020;21.378;2022-09-09T02:30:56;100284.50;;;18.51
63113;BMP280;49206;48.020;21.378;2022-09-09T02:41:07;100283.72;;;18.54
63113;BMP280;49206;48.020;21.378;2022-09-09T02:51:40;100312.03;;;18.51
63113;BMP280;49206;48.020;21.378;2022-09-09T03:01:48;100297.84;;;18.54
63113;BMP280;49206;48.020;21.378;2022-09-09T03:11:51;100305.19;;;18.43
63113;BMP280;49206;48.020;21.378;2022-09-09T03:22:19;100320.50;;;18.36
63113;BMP280;49206;48.020;21.378;2022-09-09T03:32:23;100333.53;;;18.20
63113;BMP280;49206;48.020;21.378;2022-09-09T03:42:39;100343.13;;;18.14
63113;BMP280;49206;48.020;21.378;2022-09-09T03:52:43;100353.84;;;17.79
63113;BMP280;49206;48.020;21.378;2022-09-09T04:12:21;100370.66;;;18.00
63113;BMP280;49206;48.020;21.378;2022-09-09T04:29:43;100373.25;;;18.32
63113;BMP280;49206;48.020;21.378;2022-09-09T04:39:48;100376.22;;;18.48
63113;BMP280;49206;48.020;21.378;2022-09-09T04:49:51;100374.00;;;18.36
63113;BMP280;49206;48.020;21.378;2022-09-09T04:59:57;100371.25;;;18.60
63113;BMP280;49206;48.020;21.378;2022-09-09T05:10:00;100366.22;;;18.69
63113;BMP280;49206;48.020;21.378;2022-09-09T05:20:03;100376.50;;;18.78
63113;BMP280;49206;48.020;21.378;2022-09-09T05:51:37;100379.91;;;18.82
63113;BMP280;49206;48.020;21.378;2022-09-09T06:01:45;100387.53;;;18.87
63113;BMP280;49206;48.020;21.378;2022-09-09T06:11:55;100378.59;;;19.07
63113;BMP280;49206;48.020;21.378;2022-09-09T06:22:00;100381.59;;;19.16
63113;BMP280;49206;48.020;21.378;2022-09-09T06:32:06;100392.09;;;19.44
63113;BMP280;49206;48.020;21.378;2022-09-09T06:48:29;100403.28;;;20.16
63113;BMP280;49206;48.020;21.378;2022-09-09T06:58:33;100408.84;;;20.35
63113;BMP280;49206;48.020;21.378;2022-09-09T07:08:37;100420.00;;;20.30
63113;BMP280;49206;48.020;21.378;2022-09-09T07:18:41;100415.56;;;20.17
63113;BMP280;49206;48.020;21.378;2022-09-09T07:28:45;100413.72;;;20.11
63113;BMP280;49206;48.020;21.378;2022-09-09T07:43:39;100424.16;;;20.02
63113;BMP280;49206;48.020;21.378;2022-09-09T07:53:45;100416.81;;;20.72
63113;BMP280;49206;48.020;21.378;2022-09-09T08:03:57;100425.50;;;20.83
63113;BMP280;49206;48.020;21.378;2022-09-09T08:14:04;100434.66;;;21.12
63113;BMP280;49206;48.020;21.378;2022-09-09T08:24:09;100445.16;;;21.03
63113;BMP280;49206;48.020;21.378;2022-09-09T08:34:13;100438.94;;;21.32
63113;BMP280;49206;48.020;21.378;2022-09-09T08:54:21;100434.97;;;21.86
63113;BMP280;49206;48.020;21.378;2022-09-09T09:14:59;100459.06;;;22.13
63113;BMP280;49206;48.020;21.378;2022-09-09T09:25:27;100454.06;;;21.92
63113;BMP280;49206;48.020;21.378;2022-09-09T09:35:34;100460.19;;;22.15
63113;BMP280;49206;48.020;21.378;2022-09-09T09:45:46;100471.28;;;22.36
63113;BMP280;49206;48.020;21.378;2022-09-09T09:56:11;100472.53;;;22.51
63113;BMP280;49206;48.020;21.378;2022-09-09T10:06:15;100487.00;;;22.57
63113;BMP280;49206;48.020;21.378;2022-09-09T10:26:44;100477.66;;;22.81
63113;BMP280;49206;48.020;21.378;2022-09-09T10:36:49;100478.88;;;23.60
63113;BMP280;49206;48.020;21.378;2022-09-09T10:47:21;100485.41;;;23.30
63113;BMP280;49206;48.020;21.378;2022-09-09T10:57:34;100476.75;;;22.52
63113;BMP280;49206;48.020;21.378;2022-09-09T11:07:58;100478.06;;;24.20
63113;BMP280;49206;48.020;21.378;2022-09-09T11:18:04;100488.38;;;24.37
63113;BMP280;49206;48.020;21.378;2022-09-09T11:28:40;100474.75;;;24.00
63113;BMP280;49206;48.020;21.378;2022-09-09T11:38:55;100490.41;;;24.21
63113;BMP280;49206;48.020;21.378;2022-09-09T11:49:02;100480.31;;;25.24
63113;BMP280;49206;48.020;21.378;2022-09-09T11:59:16;100473.34;;;25.69
63113;BMP280;49206;48.020;21.378;2022-09-09T12:19:40;100463.22;;;27.12
63113;BMP280;49206;48.020;21.378;2022-09-09T12:50:32;100450.22;;;27.79
63113;BMP280;49206;48.020;21.378;2022-09-09T13:00:35;100434.84;;;27.76
63113;BMP280;49206;48.020;21.378;2022-09-09T13:10:46;100426.53;;;27.71
63113;BMP280;49206;48.020;21.378;2022-09-09T13:21:01;100421.13;;;27.35
63113;BMP280;49206;48.020;21.378;2022-09-09T13:31:06;100410.25;;;27.53
63113;BMP280;49206;48.020;21.378;2022-09-09T13:41:22;100393.09;;;26.36
63113;BMP280;49206;48.020;21.378;2022-09-09T13:51:32;100382.41;;;26.81
63113;BMP280;49206;48.020;21.378;2022-09-09T14:01:36;100380.59;;;27.13
63113;BMP280;49206;48.020;21.378;2022-09-09T14:11:39;100362.75;;;26.59
63113;BMP280;49206;48.020;21.378;2022-09-09T14:21:43;100361.94;;;26.31
63113;BMP280;49206;48.020;21.378;2022-09-09T14:31:45;100364.06;;;26.45
63113;BMP280;49206;48.020;21.378;2022-09-09T14:41:48;100355.78;;;26.09
63113;BMP280;49206;48.020;21.378;2022-09-09T14:51:50;100359.72;;;25.35
63113;BMP280;49206;48.020;21.378;2022-09-09T15:01:52;100354.72;;;24.66
63113;BMP280;49206;48.020;21.378;2022-09-09T15:11:57;100356.78;;;24.75
63113;BMP280;49206;48.020;21.378;2022-09-09T15:22:00;100368.88;;;24.70
63113;BMP280;49206;48.020;21.378;2022-09-09T15:32:02;100391.38;;;23.89
63113;BMP280;49206;48.020;21.378;2022-09-09T15:42:04;100385.63;;;23.46
63113;BMP280;49206;48.020;21.378;2022-09-09T15:52:10;100384.41;;;23.03
63113;BMP280;49206;48.020;21.378;2022-09-09T16:02:13;100384.38;;;22.71
63113;BMP280;49206;48.020;21.378;2022-09-09T16:12:15;100379.91;;;22.49
63113;BMP280;49206;48.020;21.378;2022-09-09T16:22:18;100381.09;;;22.28
63113;BMP280;49206;48.020;21.378;2022-09-09T16:32:20;100389.38;;;21.99
63113;BMP280;49206;48.020;21.378;2022-09-09T16:42:26;100391.84;;;21.47
63113;BMP280;49206;48.020;21.378;2022-09-09T16:52:29;100381.47;;;21.26
63113;BMP280;49206;48.020;21.378;2022-09-09T17:02:32;100392.19;;;21.04
63113;BMP280;49206;48.020;21.378;2022-09-09T17:12:34;100390.84;;;20.89
63113;BMP280;49206;48.020;21.378;2022-09-09T17:22:43;100402.97;;;20.74
63113;BMP280;49206;48.020;21.378;2022-09-09T17:32:46;100410.75;;;20.65
63113;BMP280;49206;48.020;21.378;2022-09-09T17:42:48;100413.94;;;20.56
63113;BMP280;49206;48.020;21.378;2022-09-09T17:52:51;100412.69;;;20.34
63113;BMP280;49206;48.020;21.378;2022-09-09T18:02:54;100402.28;;;20.36
63113;BMP280;49206;48.020;21.378;2022-09-09T18:12:57;100403.41;;;20.39
63113;BMP280;49206;48.020;21.378;2022-09-09T18:23:03;100415.16;;;20.18
63113;BMP280;49206;48.020;21.378;2022-09-09T18:33:05;100422.44;;;20.18
63113;BMP280;49206;48.020;21.378;2022-09-09T18:43:09;100420.34;;;19.99
63113;BMP280;49206;48.020;21.378;2022-09-09T18:53:13;100415.41;;;19.91
63113;BMP280;49206;48.020;21.378;2022-09-09T19:03:17;100415.03;;;19.92
63113;BMP280;49206;48.020;21.378;2022-09-09T19:13:20;100407.50;;;19.80
63113;BMP280;49206;48.020;21.378;2022-09-09T19:23:23;100407.91;;;19.75
63113;BMP280;49206;48.020;21.378;2022-09-09T19:33:31;100426.03;;;19.64
63113;BMP280;49206;48.020;21.378;2022-09-09T19:43:34;100404.66;;;19.54
63113;BMP280;49206;48.020;21.378;2022-09-09T19:53:38;100400.91;;;19.41
63113;BMP280;49206;48.020;21.378;2022-09-09T20:03:43;100397.59;;;19.30
63113;BMP280;49206;48.020;21.378;2022-09-09T20:13:47;100385.84;;;19.13
63113;BMP280;49206;48.020;21.378;2022-09-09T20:23:50;100377.84;;;19.06
63113;BMP280;49206;48.020;21.378;2022-09-09T20:33:55;100368.34;;;18.98
63113;BMP280;49206;48.020;21.378;2022-09-09T20:44:00;100370.28;;;18.91
63113;BMP280;49206;48.020;21.378;2022-09-09T20:54:09;100364.94;;;18.94
63113;BMP280;49206;48.020;21.378;2022-09-09T21:04:13;100375.59;;;18.98
63113;BMP280;49206;48.020;21.378;2022-09-09T21:14:16;100362.91;;;19.05
63113;BMP280;49206;48.020;21.378;2022-09-09T21:24:18;100360.34;;;18.92
63113;BMP280;49206;48.020;21.378;2022-09-09T21:34:21;100345.75;;;19.03
63113;BMP280;49206;48.020;21.378;2022-09-09T21:44:23;100336.69;;;18.87
63113;BMP280;49206;48.020;21.378;2022-09-09T21:54:30;100332.88;;;18.81
63113;BMP280;49206;48.020;21.378;2022-09-09T22:04:35;100328.28;;;18.81
63113;BMP280;49206;48.020;21.378;2022-09-09T22:14:37;100333.66;;;18.78
63113;BMP280;49206;48.020;21.378;2022-09-09T22:24:40;100336.34;;;18.74
63113;BMP280;49206;48.020;21.378;2022-09-09T22:34:43;100333.22;;;18.86
63113;BMP280;49206;48.020;21.378;2022-09-09T22:44:47;100309.91;;;18.87
63113;BMP280;49206;48.020;21.378;2022-09-09T22:54:50;100320.63;;;18.83
63113;BMP280;49206;48.020;21.378;2022-09-09T23:04:53;100309.56;;;18.81
63113;BMP280;49206;48.020;21.378;2022-09-09T23:14:55;100293.19;;;18.69
63113;BMP280;49206;48.020;21.378;2022-09-09T23:24:57;100292.41;;;18.72
63113;BMP280;49206;48.020;21.378;2022-09-09T23:35:01;100295.47;;;18.74
63113;BMP280;49206;48.020;21.378;2022-09-09T23:45:04;100292.41;;;18.72
63113;BMP280;49206;48.020;21.378;2022-09-09T23:55:07;100263.03;;;18.61
